Euskara    
Meteorología y climatología de Navarra
Datos de la estación - Meteo Navarra

Estación de Carrascal GN

Altitud 568 m.


Datos desde el 18/10/2020 hasta el 19/10/2020 en horario solar
Los datos son PROVISIONALES

Anterior Página 1 de 1 Siguiente Descargar: Formato para Excel 2000 o superior   Formato csv   Formato para OpenOffice Calc
Fecha Temperatura Humedad relativa Radiación global Insolación Precipitación Vel. viento 10 m Vel. viento 10 m Dir. viento 10 m
°C % W/m² s l/m² m/s km/h °
18/10/2020 0:00 6.4 91 0.0 0 0.0 4.8 17.4 42
18/10/2020 0:10 6.4 92 0.0 0 0.0 5.1 18.2 43
18/10/2020 0:20 6.0 93 0.0 0 0.0 3.9 13.9 38
18/10/2020 0:30 5.8 93 0.0 0 0.0 2.5 9.1 25
18/10/2020 0:40 5.6 93 0.0 0 0.0 3.2 11.4 28
18/10/2020 0:50 5.0 93 0.0 0 0.0 3.4 12.3 35
18/10/2020 1:00 4.7 94 0.0 0 0.0 3.9 14.2 38
18/10/2020 1:10 4.9 95 0.0 0 0.0 4.1 14.7 34
18/10/2020 1:20 5.1 95 0.0 0 0.0 4.3 15.4 39
18/10/2020 1:30 4.4 94 0.0 0 0.0 4.0 14.3 40
18/10/2020 1:40 4.7 95 0.0 0 0.0 4.2 15.1 37
18/10/2020 1:50 4.3 95 0.0 0 0.0 3.7 13.4 41
18/10/2020 2:00 4.6 96 0.0 0 0.0 4.6 16.7 40
18/10/2020 2:10 4.2 95 0.0 0 0.0 4.1 14.8 37
18/10/2020 2:20 4.5 96 0.0 0 0.0 3.6 13.0 34
18/10/2020 2:30 4.8 96 0.0 0 0.0 2.7 9.7 34
18/10/2020 2:40 4.3 95 0.0 0 0.0 3.4 12.2 44
18/10/2020 2:50 3.8 95 0.0 0 0.0 4.3 15.4 50
18/10/2020 3:00 3.7 96 0.0 0 0.0 4.4 15.8 41
18/10/2020 3:10 3.8 97 0.0 0 0.0 4.2 15.2 37
18/10/2020 3:20 3.7 97 0.0 0 0.0 4.0 14.3 34
18/10/2020 3:30 3.7 97 0.0 0 0.0 4.2 15.3 38
18/10/2020 3:40 3.6 97 0.0 0 0.0 4.0 14.3 34
18/10/2020 3:50 3.8 98 0.0 0 0.0 3.3 12.0 39
18/10/2020 4:00 3.9 98 0.0 0 0.0 3.5 12.6 34
18/10/2020 4:10 3.5 97 0.0 0 0.0 3.6 12.9 43
18/10/2020 4:20 3.3 97 0.0 0 0.0 3.4 12.3 40
18/10/2020 4:30 2.9 97 0.0 0 0.0 3.7 13.4 45
18/10/2020 4:40 3.1 98 0.0 0 0.0 4.4 15.7 40
18/10/2020 4:50 3.4 98 0.0 0 0.0 4.8 17.1 45
18/10/2020 5:00 3.4 98 0.0 0 0.0 5.0 18.0 42
18/10/2020 5:10 3.4 98 0.0 0 0.0 4.9 17.7 43
18/10/2020 5:20 3.2 98 0.0 0 0.0 4.4 15.9 43
18/10/2020 5:30 3.0 98 0.0 0 0.0 4.9 17.7 45
18/10/2020 5:40 2.9 98 0.0 0 0.0 5.1 18.4 47
18/10/2020 5:50 3.1 98 0.0 0 0.0 4.9 17.6 45
18/10/2020 6:00 2.9 98 0.0 0 0.0 5.0 18.0 45
18/10/2020 6:10 3.0 99 0.0 0 0.0 5.4 19.6 43
18/10/2020 6:20 3.1 99 0.0 0 0.0 5.7 20.6 40
18/10/2020 6:30 3.0 98 0.0 0 0.0 5.7 20.4 37
18/10/2020 6:40 3.1 98 14.0 0 0.0 5.7 20.4 36
18/10/2020 6:50 3.1 99 35.5 498 0.0 6.0 21.7 40
18/10/2020 7:00 3.1 98 52.6 600 0.0 5.7 20.5 40
18/10/2020 7:10 3.2 98 66.2 600 0.0 6.0 21.7 43
18/10/2020 7:20 3.2 99 84.6 600 0.0 5.7 20.3 41
18/10/2020 7:30 3.4 98 105.8 600 0.0 5.7 20.4 41
18/10/2020 7:40 3.4 98 110.1 344 0.0 4.3 15.3 34
18/10/2020 7:50 3.5 98 107.6 150 0.0 4.8 17.3 48
18/10/2020 8:00 3.9 98 235.2 600 0.0 5.1 18.2 51
18/10/2020 8:10 4.6 98 253.0 600 0.0 4.8 17.2 46
18/10/2020 8:20 5.0 97 242.4 600 0.0 5.4 19.4 46
18/10/2020 8:30 5.0 96 259.1 600 0.0 5.2 18.5 50
18/10/2020 8:40 5.5 95 182.6 182 0.0 4.9 17.6 45
18/10/2020 8:50 5.3 94 176.9 104 0.0 5.5 19.7 49
18/10/2020 9:00 5.4 94 167.7 0 0.0 5.3 19.0 47
18/10/2020 9:10 5.8 93 234.8 454 0.0 4.6 16.6 49
18/10/2020 9:20 6.4 92 381.8 600 0.0 5.0 18.0 53
18/10/2020 9:30 7.1 89 476.4 600 0.0 4.8 17.1 41
18/10/2020 9:40 8.0 87 540.8 600 0.0 4.3 15.5 50
18/10/2020 9:50 8.4 84 521.2 600 0.0 4.1 14.6 52
18/10/2020 10:00 9.3 82 560.4 600 0.0 3.8 13.7 52
18/10/2020 10:10 9.5 80 459.0 600 0.0 3.7 13.2 57
18/10/2020 10:20 10.0 79 607.7 600 0.0 3.1 11.3 48
18/10/2020 10:30 10.6 76 585.6 600 0.0 3.1 11.1 55
18/10/2020 10:40 10.9 74 611.3 600 0.0 2.5 8.9 41
18/10/2020 10:50 11.7 71 567.1 600 0.0 2.8 10.2 39
18/10/2020 11:00 12.1 70 624.2 600 0.0 2.7 9.9 49
18/10/2020 11:10 12.6 68 635.8 600 0.0 2.9 10.6 53
18/10/2020 11:20 13.1 67 640.4 600 0.0 3.0 10.7 47
18/10/2020 11:30 13.3 64 645.1 600 0.0 3.5 12.6 57
18/10/2020 11:40 13.6 64 649.7 600 0.0 3.2 11.6 53
18/10/2020 11:50 13.8 63 649.6 600 0.0 2.9 10.3 39
18/10/2020 12:00 14.2 62 654.1 600 0.0 3.2 11.4 52
18/10/2020 12:10 14.6 62 645.9 600 0.0 3.2 11.6 55
18/10/2020 12:20 14.7 60 636.6 600 0.0 3.1 11.3 51
18/10/2020 12:30 15.1 57 607.2 600 0.0 2.5 8.9 49
18/10/2020 12:40 15.6 57 596.4 600 0.0 1.6 5.8 42
18/10/2020 12:50 16.1 54 600.5 600 0.0 1.3 4.8 49
18/10/2020 13:00 16.8 53 637.3 600 0.0 1.4 4.9 37
18/10/2020 13:10 17.1 51 626.1 600 0.0 1.1 3.9 31
18/10/2020 13:20 17.6 48 558.0 600 0.0 0.6 2.2 23
18/10/2020 13:30 18.2 45 567.8 600 0.0 0.8 2.7 297
18/10/2020 13:40 18.9 45 551.7 600 0.0 0.3 1.2 252
18/10/2020 13:50 18.7 46 419.6 600 0.0 1.0 3.5 39
18/10/2020 14:00 17.6 51 447.2 600 0.0 2.4 8.6 57
18/10/2020 14:10 17.5 51 425.1 600 0.0 2.6 9.4 48
18/10/2020 14:20 17.3 50 340.5 600 0.0 2.0 7.3 51
18/10/2020 14:30 17.4 51 286.2 462 0.0 2.1 7.6 52
18/10/2020 14:40 17.2 51 212.0 196 0.0 2.2 7.9 56
18/10/2020 14:50 17.1 54 191.0 0 0.0 2.4 8.5 45
18/10/2020 15:00 16.7 54 158.7 0 0.0 2.3 8.2 46
18/10/2020 15:10 16.6 56 158.2 0 0.0 2.4 8.7 44
18/10/2020 15:20 16.4 56 140.8 0 0.0 2.3 8.2 41
18/10/2020 15:30 16.5 55 156.1 152 0.0 1.8 6.5 34
18/10/2020 15:40 16.5 57 167.1 372 0.0 1.8 6.6 41
18/10/2020 15:50 16.2 59 125.0 26 0.0 1.9 6.7 37
18/10/2020 16:00 16.3 58 212.0 600 0.0 1.4 5.2 39
18/10/2020 16:10 16.6 57 206.4 600 0.0 0.8 3.0 31
18/10/2020 16:20 16.9 54 177.0 600 0.0 0.6 2.1 8
18/10/2020 16:30 16.9 53 142.9 600 0.0 0.3 1.1 8
18/10/2020 16:40 17.0 53 101.4 600 0.0 0.5 1.8 38
18/10/2020 16:50 16.6 55 68.7 600 0.0 1.0 3.7 59
18/10/2020 17:00 16.2 56 39.7 600 0.0 1.3 4.5 41
18/10/2020 17:10 15.4 59 10.2 8 0.0 1.5 5.5 16
18/10/2020 17:20 14.4 65 0.0 0 0.0 1.7 6.1 8
18/10/2020 17:30 14.0 68 0.0 0 0.0 1.6 5.6 0
18/10/2020 17:40 13.6 69 0.0 0 0.0 1.0 3.7 4
18/10/2020 17:50 13.8 67 0.0 0 0.0 0.5 1.9 1
18/10/2020 18:00 12.8 68 0.0 0 0.0 1.7 6.0 194
18/10/2020 18:10 12.0 68 0.0 0 0.0 2.1 7.5 165
18/10/2020 18:20 11.8 69 0.0 0 0.0 2.0 7.1 189
18/10/2020 18:30 11.4 71 0.0 0 0.0 1.9 6.9 189
18/10/2020 18:40 11.2 70 0.0 0 0.0 1.9 7.0 194
18/10/2020 18:50 11.6 69 0.0 0 0.0 2.0 7.0 199
18/10/2020 19:00 11.3 70 0.0 0 0.0 2.0 7.3 196
18/10/2020 19:10 11.3 70 0.0 0 0.0 2.1 7.4 208
18/10/2020 19:20 11.0 70 0.0 0 0.0 2.0 7.1 209
18/10/2020 19:30 10.7 71 0.0 0 0.0 2.1 7.5 217
18/10/2020 19:40 10.3 73 0.0 0 0.0 1.8 6.5 204
18/10/2020 19:50 10.0 74 0.0 0 0.0 2.1 7.5 212
18/10/2020 20:00 10.4 72 0.0 0 0.0 2.0 7.2 232
18/10/2020 20:10 11.0 69 0.0 0 0.0 2.6 9.4 230
18/10/2020 20:20 10.9 69 0.0 0 0.0 2.7 9.7 221
18/10/2020 20:30 11.2 67 0.0 0 0.0 2.4 8.6 216
18/10/2020 20:40 11.1 65 0.0 0 0.0 1.9 6.8 202
18/10/2020 20:50 11.5 63 0.0 0 0.0 1.9 6.9 179
18/10/2020 21:00 11.1 65 0.0 0 0.0 1.8 6.6 200
18/10/2020 21:10 10.3 68 0.0 0 0.0 1.2 4.4 167
18/10/2020 21:20 10.5 68 0.0 0 0.0 0.8 2.8 99
18/10/2020 21:30 10.8 67 0.0 0 0.0 0.4 1.3 80
18/10/2020 21:40 10.5 69 0.0 0 0.0 0.1 0.3 180
18/10/2020 21:50 10.5 68 0.0 0 0.0 0.1 0.3 196
18/10/2020 22:00 10.3 69 0.0 0 0.0 0.1 0.3 194
18/10/2020 22:10 9.9 70 0.0 0 0.0 0.1 0.4 177
18/10/2020 22:20 9.9 71 0.0 0 0.0 0.8 2.7 59
18/10/2020 22:30 9.3 72 0.0 0 0.0 1.1 4.1 28
18/10/2020 22:40 8.8 75 0.0 0 0.0 1.1 3.9 12
18/10/2020 22:50 8.8 75 0.0 0 0.0 1.3 4.6 23
18/10/2020 23:00 8.7 76 0.0 0 0.0 1.4 5.0 55
18/10/2020 23:10 8.8 76 0.0 0 0.0 1.6 5.6 49
18/10/2020 23:20 8.6 76 0.0 0 0.0 1.8 6.4 60
18/10/2020 23:30 9.1 75 0.0 0 0.0 1.7 6.1 43
18/10/2020 23:40 7.0 80 0.0 0 0.0 2.2 7.9 43
18/10/2020 23:50 7.2 83 0.0 0 0.0 2.4 8.7 42
Anterior Página 1 de 1 Siguiente

NOTA: Tipo de datos según el color:
   - Valores diarios o 10 minutos correctos
   - Valores diarios calculados a partir de un número de datos 10 minutos menor que 144 y mayor que 120, o de un número de datos semihorarios menor que 48 y mayor que 40 (caso de las estaciones de INTIA Y Ministerio)
   - Valores diez minutos estimados


Contacto        Enlaces        Aviso legal